sensor_id;sensor_type;location;lat;lon;timestamp;P1;durP1;ratioP1;P2;durP2;ratioP2
15567;SDS011;7885;42.596;23.044;2023-04-01T00:02:11;4.27;;;1.80;;
15567;SDS011;7885;42.596;23.044;2023-04-01T00:04:38;4.00;;;1.60;;
15567;SDS011;7885;42.596;23.044;2023-04-01T00:07:05;3.53;;;1.70;;
15567;SDS011;7885;42.596;23.044;2023-04-01T00:09:31;5.40;;;1.80;;
15567;SDS011;7885;42.596;23.044;2023-04-01T00:11:58;3.00;;;1.60;;
15567;SDS011;7885;42.596;23.044;2023-04-01T00:14:26;2.93;;;1.80;;
15567;SDS011;7885;42.596;23.044;2023-04-01T00:16:54;3.00;;;2.00;;
15567;SDS011;7885;42.596;23.044;2023-04-01T00:19:21;3.53;;;1.90;;
15567;SDS011;7885;42.596;23.044;2023-04-01T00:21:47;6.17;;;1.70;;
15567;SDS011;7885;42.596;23.044;2023-04-01T00:24:14;3.70;;;1.67;;
15567;SDS011;7885;42.596;23.044;2023-04-01T00:26:41;5.47;;;1.87;;
15567;SDS011;7885;42.596;23.044;2023-04-01T00:29:09;4.97;;;2.13;;
15567;SDS011;7885;42.596;23.044;2023-04-01T00:31:37;5.27;;;2.03;;
15567;SDS011;7885;42.596;23.044;2023-04-01T00:34:04;4.53;;;1.80;;
15567;SDS011;7885;42.596;23.044;2023-04-01T00:36:31;3.67;;;2.07;;
15567;SDS011;7885;42.596;23.044;2023-04-01T00:38:57;4.57;;;1.67;;
15567;SDS011;7885;42.596;23.044;2023-04-01T00:41:25;4.17;;;2.03;;
15567;SDS011;7885;42.596;23.044;2023-04-01T00:46:41;3.40;;;1.90;;
15567;SDS011;7885;42.596;23.044;2023-04-01T00:49:08;3.10;;;1.80;;
15567;SDS011;7885;42.596;23.044;2023-04-01T00:51:36;4.43;;;2.10;;
15567;SDS011;7885;42.596;23.044;2023-04-01T00:54:04;4.07;;;1.70;;
15567;SDS011;7885;42.596;23.044;2023-04-01T00:56:31;7.03;;;2.10;;
15567;SDS011;7885;42.596;23.044;2023-04-01T01:05:54;3.50;;;2.27;;
15567;SDS011;7885;42.596;23.044;2023-04-01T01:08:35;3.67;;;1.80;;
15567;SDS011;7885;42.596;23.044;2023-04-01T01:11:22;6.43;;;1.90;;
15567;SDS011;7885;42.596;23.044;2023-04-01T01:13:56;4.93;;;1.90;;
15567;SDS011;7885;42.596;23.044;2023-04-01T01:16:28;5.60;;;2.00;;
15567;SDS011;7885;42.596;23.044;2023-04-01T01:18:58;4.33;;;1.90;;
15567;SDS011;7885;42.596;23.044;2023-04-01T01:21:43;5.70;;;1.60;;
15567;SDS011;7885;42.596;23.044;2023-04-01T01:24:28;4.30;;;1.57;;
15567;SDS011;7885;42.596;23.044;2023-04-01T01:27:07;3.70;;;1.80;;
15567;SDS011;7885;42.596;23.044;2023-04-01T01:32:44;4.20;;;1.70;;
15567;SDS011;7885;42.596;23.044;2023-04-01T01:35:27;5.63;;;2.10;;
15567;SDS011;7885;42.596;23.044;2023-04-01T01:37:58;5.63;;;1.80;;
15567;SDS011;7885;42.596;23.044;2023-04-01T01:40:28;3.97;;;1.60;;
15567;SDS011;7885;42.596;23.044;2023-04-01T01:42:59;3.47;;;1.60;;
15567;SDS011;7885;42.596;23.044;2023-04-01T01:45:29;3.63;;;1.60;;
15567;SDS011;7885;42.596;23.044;2023-04-01T01:48:00;3.20;;;1.40;;
15567;SDS011;7885;42.596;23.044;2023-04-01T01:50:30;5.03;;;1.60;;
15567;SDS011;7885;42.596;23.044;2023-04-01T01:53:02;2.27;;;1.57;;
15567;SDS011;7885;42.596;23.044;2023-04-01T01:55:31;3.50;;;1.50;;
15567;SDS011;7885;42.596;23.044;2023-04-01T01:58:00;2.97;;;1.60;;
15567;SDS011;7885;42.596;23.044;2023-04-01T02:00:32;3.80;;;1.50;;
15567;SDS011;7885;42.596;23.044;2023-04-01T02:03:00;2.77;;;1.40;;
15567;SDS011;7885;42.596;23.044;2023-04-01T02:05:28;4.27;;;1.70;;
15567;SDS011;7885;42.596;23.044;2023-04-01T02:07:59;3.67;;;1.50;;
15567;SDS011;7885;42.596;23.044;2023-04-01T02:10:30;3.73;;;1.60;;
15567;SDS011;7885;42.596;23.044;2023-04-01T02:13:01;2.00;;;1.47;;
15567;SDS011;7885;42.596;23.044;2023-04-01T02:22:18;2.97;;;1.47;;
15567;SDS011;7885;42.596;23.044;2023-04-01T02:24:48;2.87;;;1.50;;
15567;SDS011;7885;42.596;23.044;2023-04-01T02:27:16;2.23;;;1.50;;
15567;SDS011;7885;42.596;23.044;2023-04-01T02:29:43;2.63;;;1.30;;
15567;SDS011;7885;42.596;23.044;2023-04-01T02:32:10;5.30;;;1.53;;
15567;SDS011;7885;42.596;23.044;2023-04-01T02:34:39;2.60;;;1.40;;
15567;SDS011;7885;42.596;23.044;2023-04-01T02:37:06;1.60;;;1.20;;
15567;SDS011;7885;42.596;23.044;2023-04-01T02:46:18;3.60;;;1.57;;
15567;SDS011;7885;42.596;23.044;2023-04-01T02:48:46;5.33;;;1.73;;
15567;SDS011;7885;42.596;23.044;2023-04-01T02:51:12;4.10;;;1.67;;
15567;SDS011;7885;42.596;23.044;2023-04-01T02:53:39;3.83;;;1.60;;
15567;SDS011;7885;42.596;23.044;2023-04-01T02:56:06;5.10;;;2.27;;
15567;SDS011;7885;42.596;23.044;2023-04-01T03:15:22;4.90;;;1.73;;
15567;SDS011;7885;42.596;23.044;2023-04-01T03:17:49;4.10;;;1.87;;
15567;SDS011;7885;42.596;23.044;2023-04-01T03:20:16;4.93;;;2.50;;
15567;SDS011;7885;42.596;23.044;2023-04-01T03:22:43;5.37;;;2.30;;
15567;SDS011;7885;42.596;23.044;2023-04-01T03:25:11;3.87;;;1.57;;
15567;SDS011;7885;42.596;23.044;2023-04-01T03:27:38;10.97;;;5.27;;
15567;SDS011;7885;42.596;23.044;2023-04-01T03:30:05;4.77;;;2.20;;
15567;SDS011;7885;42.596;23.044;2023-04-01T03:32:34;4.30;;;2.30;;
15567;SDS011;7885;42.596;23.044;2023-04-01T03:35:01;3.13;;;1.67;;
15567;SDS011;7885;42.596;23.044;2023-04-01T03:37:28;3.50;;;1.90;;
15567;SDS011;7885;42.596;23.044;2023-04-01T03:39:54;3.77;;;2.27;;
15567;SDS011;7885;42.596;23.044;2023-04-01T03:42:21;4.90;;;1.70;;
15567;SDS011;7885;42.596;23.044;2023-04-01T03:44:48;5.23;;;1.63;;
15567;SDS011;7885;42.596;23.044;2023-04-01T03:47:15;7.57;;;2.50;;
15567;SDS011;7885;42.596;23.044;2023-04-01T03:49:43;5.10;;;1.57;;
15567;SDS011;7885;42.596;23.044;2023-04-01T03:52:10;6.07;;;1.80;;
15567;SDS011;7885;42.596;23.044;2023-04-01T03:54:37;3.27;;;1.43;;
15567;SDS011;7885;42.596;23.044;2023-04-01T03:57:04;8.63;;;1.93;;
15567;SDS011;7885;42.596;23.044;2023-04-01T03:59:31;4.90;;;1.90;;
15567;SDS011;7885;42.596;23.044;2023-04-01T04:01:58;4.83;;;1.80;;
15567;SDS011;7885;42.596;23.044;2023-04-01T04:04:25;1.93;;;1.40;;
15567;SDS011;7885;42.596;23.044;2023-04-01T04:06:53;3.03;;;1.63;;
15567;SDS011;7885;42.596;23.044;2023-04-01T04:09:20;5.20;;;1.73;;
15567;SDS011;7885;42.596;23.044;2023-04-01T04:11:47;5.87;;;1.77;;
15567;SDS011;7885;42.596;23.044;2023-04-01T04:14:14;6.40;;;1.90;;
15567;SDS011;7885;42.596;23.044;2023-04-01T04:16:41;5.90;;;1.90;;
15567;SDS011;7885;42.596;23.044;2023-04-01T04:19:07;5.27;;;1.67;;
15567;SDS011;7885;42.596;23.044;2023-04-01T04:21:34;6.10;;;2.03;;
15567;SDS011;7885;42.596;23.044;2023-04-01T04:24:03;8.23;;;1.77;;
15567;SDS011;7885;42.596;23.044;2023-04-01T04:26:30;5.73;;;1.80;;
15567;SDS011;7885;42.596;23.044;2023-04-01T04:28:57;5.13;;;1.90;;
15567;SDS011;7885;42.596;23.044;2023-04-01T04:31:24;5.33;;;1.60;;
15567;SDS011;7885;42.596;23.044;2023-04-01T04:33:52;4.40;;;1.70;;
15567;SDS011;7885;42.596;23.044;2023-04-01T04:36:19;5.30;;;1.70;;
15567;SDS011;7885;42.596;23.044;2023-04-01T04:38:46;4.77;;;1.77;;
15567;SDS011;7885;42.596;23.044;2023-04-01T04:41:16;2.87;;;1.43;;
15567;SDS011;7885;42.596;23.044;2023-04-01T04:43:48;2.00;;;1.00;;
15567;SDS011;7885;42.596;23.044;2023-04-01T04:46:17;4.40;;;1.83;;
15567;SDS011;7885;42.596;23.044;2023-04-01T04:48:44;3.23;;;1.30;;
15567;SDS011;7885;42.596;23.044;2023-04-01T04:51:12;6.00;;;1.80;;
15567;SDS011;7885;42.596;23.044;2023-04-01T04:53:40;5.47;;;1.80;;
15567;SDS011;7885;42.596;23.044;2023-04-01T04:56:07;5.20;;;1.90;;
15567;SDS011;7885;42.596;23.044;2023-04-01T04:58:35;2.77;;;1.40;;
15567;SDS011;7885;42.596;23.044;2023-04-01T05:01:05;5.33;;;1.83;;
15567;SDS011;7885;42.596;23.044;2023-04-01T05:03:33;4.77;;;1.80;;
15567;SDS011;7885;42.596;23.044;2023-04-01T05:06:00;2.97;;;1.37;;
15567;SDS011;7885;42.596;23.044;2023-04-01T05:08:26;3.53;;;1.50;;
15567;SDS011;7885;42.596;23.044;2023-04-01T05:10:53;2.23;;;1.40;;
15567;SDS011;7885;42.596;23.044;2023-04-01T05:13:20;3.93;;;1.80;;
15567;SDS011;7885;42.596;23.044;2023-04-01T05:15:48;4.87;;;1.47;;
15567;SDS011;7885;42.596;23.044;2023-04-01T05:18:14;5.83;;;1.43;;
15567;SDS011;7885;42.596;23.044;2023-04-01T05:20:45;5.23;;;1.77;;
15567;SDS011;7885;42.596;23.044;2023-04-01T05:23:12;5.37;;;1.87;;
15567;SDS011;7885;42.596;23.044;2023-04-01T05:25:39;6.07;;;1.90;;
15567;SDS011;7885;42.596;23.044;2023-04-01T05:28:06;2.03;;;1.27;;
15567;SDS011;7885;42.596;23.044;2023-04-01T05:30:33;3.60;;;1.70;;
15567;SDS011;7885;42.596;23.044;2023-04-01T05:33:01;2.60;;;1.53;;
15567;SDS011;7885;42.596;23.044;2023-04-01T05:35:28;5.20;;;1.50;;
15567;SDS011;7885;42.596;23.044;2023-04-01T05:37:54;6.20;;;1.33;;
15567;SDS011;7885;42.596;23.044;2023-04-01T05:40:21;4.50;;;1.40;;
15567;SDS011;7885;42.596;23.044;2023-04-01T05:42:48;4.70;;;1.47;;
15567;SDS011;7885;42.596;23.044;2023-04-01T05:45:15;7.53;;;1.87;;
15567;SDS011;7885;42.596;23.044;2023-04-01T05:47:41;4.07;;;1.90;;
15567;SDS011;7885;42.596;23.044;2023-04-01T05:50:10;5.33;;;2.07;;
15567;SDS011;7885;42.596;23.044;2023-04-01T05:52:37;5.73;;;1.70;;
15567;SDS011;7885;42.596;23.044;2023-04-01T05:55:04;3.07;;;1.70;;
15567;SDS011;7885;42.596;23.044;2023-04-01T05:57:32;5.60;;;1.90;;
15567;SDS011;7885;42.596;23.044;2023-04-01T05:59:59;2.57;;;1.33;;
15567;SDS011;7885;42.596;23.044;2023-04-01T06:02:26;6.23;;;2.00;;
15567;SDS011;7885;42.596;23.044;2023-04-01T06:04:54;2.43;;;1.43;;
15567;SDS011;7885;42.596;23.044;2023-04-01T06:07:29;2.73;;;1.53;;
15567;SDS011;7885;42.596;23.044;2023-04-01T06:09:56;6.60;;;1.90;;
15567;SDS011;7885;42.596;23.044;2023-04-01T06:12:27;1.93;;;1.20;;
15567;SDS011;7885;42.596;23.044;2023-04-01T06:15:09;4.70;;;1.83;;
15567;SDS011;7885;42.596;23.044;2023-04-01T06:17:48;6.13;;;1.50;;
15567;SDS011;7885;42.596;23.044;2023-04-01T06:20:32;3.90;;;1.70;;
15567;SDS011;7885;42.596;23.044;2023-04-01T06:26:18;6.47;;;1.50;;
15567;SDS011;7885;42.596;23.044;2023-04-01T06:29:08;4.47;;;1.70;;
15567;SDS011;7885;42.596;23.044;2023-04-01T06:31:59;3.03;;;1.50;;
15567;SDS011;7885;42.596;23.044;2023-04-01T06:34:51;3.47;;;1.70;;
15567;SDS011;7885;42.596;23.044;2023-04-01T06:40:36;5.65;;;2.00;;
15567;SDS011;7885;42.596;23.044;2023-04-01T06:43:15;5.13;;;1.97;;
15567;SDS011;7885;42.596;23.044;2023-04-01T06:45:48;3.50;;;1.93;;
15567;SDS011;7885;42.596;23.044;2023-04-01T06:55:09;5.93;;;1.37;;
15567;SDS011;7885;42.596;23.044;2023-04-01T06:57:52;2.03;;;1.25;;
15567;SDS011;7885;42.596;23.044;2023-04-01T07:00:24;3.73;;;1.40;;
15567;SDS011;7885;42.596;23.044;2023-04-01T07:02:57;3.23;;;1.30;;
15567;SDS011;7885;42.596;23.044;2023-04-01T07:05:31;2.90;;;1.53;;
15567;SDS011;7885;42.596;23.044;2023-04-01T07:08:00;2.20;;;1.50;;
15567;SDS011;7885;42.596;23.044;2023-04-01T07:10:33;5.30;;;1.53;;
15567;SDS011;7885;42.596;23.044;2023-04-01T07:13:12;5.10;;;2.50;;
15567;SDS011;7885;42.596;23.044;2023-04-01T07:15:48;4.43;;;1.83;;
15567;SDS011;7885;42.596;23.044;2023-04-01T07:18:22;5.93;;;1.30;;
15567;SDS011;7885;42.596;23.044;2023-04-01T07:20:54;5.60;;;1.57;;
15567;SDS011;7885;42.596;23.044;2023-04-01T07:23:23;3.67;;;1.53;;
15567;SDS011;7885;42.596;23.044;2023-04-01T07:25:52;3.60;;;1.33;;
15567;SDS011;7885;42.596;23.044;2023-04-01T07:28:24;4.53;;;1.30;;
15567;SDS011;7885;42.596;23.044;2023-04-01T07:30:58;4.67;;;1.50;;
15567;SDS011;7885;42.596;23.044;2023-04-01T07:33:35;5.00;;;1.80;;
15567;SDS011;7885;42.596;23.044;2023-04-01T07:36:09;3.33;;;1.60;;
15567;SDS011;7885;42.596;23.044;2023-04-01T07:38:44;5.93;;;1.83;;
15567;SDS011;7885;42.596;23.044;2023-04-01T07:41:21;9.93;;;2.00;;
15567;SDS011;7885;42.596;23.044;2023-04-01T07:43:59;3.47;;;1.70;;
15567;SDS011;7885;42.596;23.044;2023-04-01T07:46:40;5.93;;;1.73;;
15567;SDS011;7885;42.596;23.044;2023-04-01T07:49:17;5.93;;;2.17;;
15567;SDS011;7885;42.596;23.044;2023-04-01T07:51:53;6.43;;;2.70;;
15567;SDS011;7885;42.596;23.044;2023-04-01T07:54:28;6.33;;;2.80;;
15567;SDS011;7885;42.596;23.044;2023-04-01T07:57:00;6.43;;;2.83;;
15567;SDS011;7885;42.596;23.044;2023-04-01T07:59:33;7.53;;;2.30;;
15567;SDS011;7885;42.596;23.044;2023-04-01T08:02:12;6.47;;;1.90;;
15567;SDS011;7885;42.596;23.044;2023-04-01T08:04:49;7.83;;;2.10;;
15567;SDS011;7885;42.596;23.044;2023-04-01T08:07:25;2.93;;;1.23;;
15567;SDS011;7885;42.596;23.044;2023-04-01T08:10:04;3.30;;;1.70;;
15567;SDS011;7885;42.596;23.044;2023-04-01T08:12:43;5.43;;;2.03;;
15567;SDS011;7885;42.596;23.044;2023-04-01T08:15:23;5.57;;;1.70;;
15567;SDS011;7885;42.596;23.044;2023-04-01T08:17:57;7.13;;;2.03;;
15567;SDS011;7885;42.596;23.044;2023-04-01T08:20:32;2.83;;;1.30;;
15567;SDS011;7885;42.596;23.044;2023-04-01T08:23:05;4.50;;;1.60;;
15567;SDS011;7885;42.596;23.044;2023-04-01T08:25:37;5.53;;;1.50;;
15567;SDS011;7885;42.596;23.044;2023-04-01T08:28:09;4.70;;;1.03;;
15567;SDS011;7885;42.596;23.044;2023-04-01T08:30:43;3.63;;;1.13;;
15567;SDS011;7885;42.596;23.044;2023-04-01T08:33:15;4.13;;;1.57;;
15567;SDS011;7885;42.596;23.044;2023-04-01T08:35:46;5.17;;;1.83;;
15567;SDS011;7885;42.596;23.044;2023-04-01T08:38:19;2.97;;;1.57;;
15567;SDS011;7885;42.596;23.044;2023-04-01T08:40:55;4.03;;;1.40;;
15567;SDS011;7885;42.596;23.044;2023-04-01T08:46:51;4.87;;;1.60;;
15567;SDS011;7885;42.596;23.044;2023-04-01T08:49:37;5.93;;;1.50;;
15567;SDS011;7885;42.596;23.044;2023-04-01T08:52:22;3.27;;;1.33;;
15567;SDS011;7885;42.596;23.044;2023-04-01T08:55:02;4.07;;;1.60;;
15567;SDS011;7885;42.596;23.044;2023-04-01T08:57:45;6.17;;;2.07;;
15567;SDS011;7885;42.596;23.044;2023-04-01T09:00:25;4.73;;;1.40;;
15567;SDS011;7885;42.596;23.044;2023-04-01T09:06:01;4.90;;;1.80;;
15567;SDS011;7885;42.596;23.044;2023-04-01T09:08:51;3.93;;;1.97;;
15567;SDS011;7885;42.596;23.044;2023-04-01T09:11:35;5.00;;;1.83;;
15567;SDS011;7885;42.596;23.044;2023-04-01T09:14:17;4.63;;;1.80;;
15567;SDS011;7885;42.596;23.044;2023-04-01T09:17:16;3.00;;;1.67;;
15567;SDS011;7885;42.596;23.044;2023-04-01T09:20:16;6.60;;;1.90;;
15567;SDS011;7885;42.596;23.044;2023-04-01T09:22:51;6.63;;;1.77;;
15567;SDS011;7885;42.596;23.044;2023-04-01T09:25:50;3.73;;;1.70;;
15567;SDS011;7885;42.596;23.044;2023-04-01T09:28:26;6.00;;;2.47;;
15567;SDS011;7885;42.596;23.044;2023-04-01T09:37:25;4.97;;;2.00;;
15567;SDS011;7885;42.596;23.044;2023-04-01T09:40:09;6.03;;;2.00;;
15567;SDS011;7885;42.596;23.044;2023-04-01T09:42:44;7.80;;;1.93;;
15567;SDS011;7885;42.596;23.044;2023-04-01T09:45:21;6.80;;;1.90;;
15567;SDS011;7885;42.596;23.044;2023-04-01T09:48:02;3.90;;;1.67;;
15567;SDS011;7885;42.596;23.044;2023-04-01T09:50:35;8.93;;;2.30;;
15567;SDS011;7885;42.596;23.044;2023-04-01T09:53:28;7.77;;;2.03;;
15567;SDS011;7885;42.596;23.044;2023-04-01T09:56:27;4.03;;;1.60;;
15567;SDS011;7885;42.596;23.044;2023-04-01T10:02:33;5.73;;;1.70;;
15567;SDS011;7885;42.596;23.044;2023-04-01T10:18:01;4.83;;;1.90;;
15567;SDS011;7885;42.596;23.044;2023-04-01T10:20:58;5.37;;;1.70;;
15567;SDS011;7885;42.596;23.044;2023-04-01T10:23:48;5.17;;;1.80;;
15567;SDS011;7885;42.596;23.044;2023-04-01T10:29:34;5.40;;;1.80;;
15567;SDS011;7885;42.596;23.044;2023-04-01T10:32:29;5.60;;;2.03;;
15567;SDS011;7885;42.596;23.044;2023-04-01T10:35:38;9.40;;;2.30;;
15567;SDS011;7885;42.596;23.044;2023-04-01T10:38:30;4.57;;;1.90;;
15567;SDS011;7885;42.596;23.044;2023-04-01T10:45:00;4.90;;;1.50;;
15567;SDS011;7885;42.596;23.044;2023-04-01T10:51:14;3.77;;;1.70;;
15567;SDS011;7885;42.596;23.044;2023-04-01T10:54:00;5.23;;;1.70;;
15567;SDS011;7885;42.596;23.044;2023-04-01T10:56:45;4.07;;;1.97;;
15567;SDS011;7885;42.596;23.044;2023-04-01T10:59:27;5.47;;;1.77;;
15567;SDS011;7885;42.596;23.044;2023-04-01T11:08:21;5.77;;;1.73;;
15567;SDS011;7885;42.596;23.044;2023-04-01T11:11:20;2.53;;;1.47;;
15567;SDS011;7885;42.596;23.044;2023-04-01T11:17:21;4.93;;;2.10;;
15567;SDS011;7885;42.596;23.044;2023-04-01T11:20:13;7.43;;;3.73;;
15567;SDS011;7885;42.596;23.044;2023-04-01T11:23:02;7.10;;;3.23;;
15567;SDS011;7885;42.596;23.044;2023-04-01T11:25:51;4.83;;;2.67;;
15567;SDS011;7885;42.596;23.044;2023-04-01T11:38:18;9.67;;;5.40;;
15567;SDS011;7885;42.596;23.044;2023-04-01T11:40:56;8.33;;;4.80;;
15567;SDS011;7885;42.596;23.044;2023-04-01T11:43:30;8.00;;;5.63;;
15567;SDS011;7885;42.596;23.044;2023-04-01T11:46:39;11.90;;;6.13;;
15567;SDS011;7885;42.596;23.044;2023-04-01T11:49:21;8.73;;;5.20;;
15567;SDS011;7885;42.596;23.044;2023-04-01T11:52:09;7.20;;;4.60;;
15567;SDS011;7885;42.596;23.044;2023-04-01T11:57:54;7.63;;;4.80;;
15567;SDS011;7885;42.596;23.044;2023-04-01T12:00:49;8.77;;;5.63;;
15567;SDS011;7885;42.596;23.044;2023-04-01T12:03:32;8.43;;;5.20;;
15567;SDS011;7885;42.596;23.044;2023-04-01T12:06:29;7.17;;;4.33;;
15567;SDS011;7885;42.596;23.044;2023-04-01T12:09:04;5.63;;;3.97;;
15567;SDS011;7885;42.596;23.044;2023-04-01T12:11:41;9.23;;;3.83;;
15567;SDS011;7885;42.596;23.044;2023-04-01T12:14:19;7.47;;;3.80;;
15567;SDS011;7885;42.596;23.044;2023-04-01T12:16:58;8.30;;;5.77;;
15567;SDS011;7885;42.596;23.044;2023-04-01T12:22:56;7.93;;;5.30;;
15567;SDS011;7885;42.596;23.044;2023-04-01T12:25:41;12.07;;;8.27;;
15567;SDS011;7885;42.596;23.044;2023-04-01T12:28:19;10.67;;;6.67;;
15567;SDS011;7885;42.596;23.044;2023-04-01T12:31:01;9.80;;;5.70;;
15567;SDS011;7885;42.596;23.044;2023-04-01T12:33:48;6.30;;;4.37;;
15567;SDS011;7885;42.596;23.044;2023-04-01T12:39:29;5.70;;;4.40;;
15567;SDS011;7885;42.596;23.044;2023-04-01T12:42:08;3.00;;;2.63;;
15567;SDS011;7885;42.596;23.044;2023-04-01T12:44:47;2.87;;;2.10;;
15567;SDS011;7885;42.596;23.044;2023-04-01T12:47:30;2.70;;;2.23;;
15567;SDS011;7885;42.596;23.044;2023-04-01T12:50:35;3.43;;;2.50;;
15567;SDS011;7885;42.596;23.044;2023-04-01T12:53:24;4.53;;;2.50;;
15567;SDS011;7885;42.596;23.044;2023-04-01T12:56:05;1.33;;;1.23;;
15567;SDS011;7885;42.596;23.044;2023-04-01T13:01:46;2.57;;;1.60;;
15567;SDS011;7885;42.596;23.044;2023-04-01T13:04:39;1.53;;;1.20;;
15567;SDS011;7885;42.596;23.044;2023-04-01T13:10:11;3.10;;;1.40;;
15567;SDS011;7885;42.596;23.044;2023-04-01T13:12:53;3.13;;;2.00;;
15567;SDS011;7885;42.596;23.044;2023-04-01T13:15:37;2.33;;;1.30;;
15567;SDS011;7885;42.596;23.044;2023-04-01T13:18:17;1.60;;;1.00;;
15567;SDS011;7885;42.596;23.044;2023-04-01T13:20:57;2.57;;;1.20;;
15567;SDS011;7885;42.596;23.044;2023-04-01T13:23:38;0.90;;;0.70;;
15567;SDS011;7885;42.596;23.044;2023-04-01T13:26:18;1.47;;;0.90;;
15567;SDS011;7885;42.596;23.044;2023-04-01T13:32:19;3.37;;;1.60;;
15567;SDS011;7885;42.596;23.044;2023-04-01T13:37:58;2.03;;;1.10;;
15567;SDS011;7885;42.596;23.044;2023-04-01T13:40:48;2.27;;;1.10;;
15567;SDS011;7885;42.596;23.044;2023-04-01T13:43:21;1.33;;;0.93;;
15567;SDS011;7885;42.596;23.044;2023-04-01T13:46:08;1.27;;;1.13;;
15567;SDS011;7885;42.596;23.044;2023-04-01T13:48:50;1.60;;;1.00;;
15567;SDS011;7885;42.596;23.044;2023-04-01T13:51:48;3.00;;;1.20;;
15567;SDS011;7885;42.596;23.044;2023-04-01T13:54:41;1.53;;;0.90;;
15567;SDS011;7885;42.596;23.044;2023-04-01T13:57:29;1.97;;;1.30;;
15567;SDS011;7885;42.596;23.044;2023-04-01T14:00:19;1.83;;;1.00;;
15567;SDS011;7885;42.596;23.044;2023-04-01T14:02:57;2.10;;;1.30;;
15567;SDS011;7885;42.596;23.044;2023-04-01T14:05:47;2.77;;;1.20;;
15567;SDS011;7885;42.596;23.044;2023-04-01T14:08:32;2.07;;;0.90;;
15567;SDS011;7885;42.596;23.044;2023-04-01T14:11:15;2.53;;;1.20;;
15567;SDS011;7885;42.596;23.044;2023-04-01T14:13:50;3.40;;;1.30;;
15567;SDS011;7885;42.596;23.044;2023-04-01T14:19:22;1.13;;;1.00;;
15567;SDS011;7885;42.596;23.044;2023-04-01T14:22:03;1.73;;;0.97;;
15567;SDS011;7885;42.596;23.044;2023-04-01T14:24:46;1.87;;;1.00;;
15567;SDS011;7885;42.596;23.044;2023-04-01T14:30:29;3.13;;;1.03;;
15567;SDS011;7885;42.596;23.044;2023-04-01T14:33:06;1.23;;;0.83;;
15567;SDS011;7885;42.596;23.044;2023-04-01T14:35:47;2.57;;;0.90;;
15567;SDS011;7885;42.596;23.044;2023-04-01T14:38:27;1.13;;;0.70;;
15567;SDS011;7885;42.596;23.044;2023-04-01T14:41:12;1.93;;;1.20;;
15567;SDS011;7885;42.596;23.044;2023-04-01T14:49:50;2.20;;;1.00;;
15567;SDS011;7885;42.596;23.044;2023-04-01T14:52:22;1.20;;;1.10;;
15567;SDS011;7885;42.596;23.044;2023-04-01T14:54:54;2.63;;;1.43;;
15567;SDS011;7885;42.596;23.044;2023-04-01T14:57:24;2.63;;;1.20;;
15567;SDS011;7885;42.596;23.044;2023-04-01T14:59:54;2.27;;;1.20;;
15567;SDS011;7885;42.596;23.044;2023-04-01T15:02:45;1.73;;;1.20;;
15567;SDS011;7885;42.596;23.044;2023-04-01T15:05:26;3.80;;;1.90;;
15567;SDS011;7885;42.596;23.044;2023-04-01T15:08:06;3.50;;;1.70;;
15567;SDS011;7885;42.596;23.044;2023-04-01T15:10:41;4.83;;;1.20;;
15567;SDS011;7885;42.596;23.044;2023-04-01T15:13:18;4.13;;;2.70;;
15567;SDS011;7885;42.596;23.044;2023-04-01T15:16:01;1.77;;;1.33;;
15567;SDS011;7885;42.596;23.044;2023-04-01T15:18:39;2.40;;;1.77;;
15567;SDS011;7885;42.596;23.044;2023-04-01T15:21:18;4.37;;;2.93;;
15567;SDS011;7885;42.596;23.044;2023-04-01T15:24:03;8.23;;;5.03;;
15567;SDS011;7885;42.596;23.044;2023-04-01T15:29:58;5.57;;;3.00;;
15567;SDS011;7885;42.596;23.044;2023-04-01T15:32:43;6.40;;;4.50;;
15567;SDS011;7885;42.596;23.044;2023-04-01T15:35:24;8.10;;;5.23;;
15567;SDS011;7885;42.596;23.044;2023-04-01T15:38:02;6.83;;;4.50;;
15567;SDS011;7885;42.596;23.044;2023-04-01T15:40:37;5.33;;;4.10;;
15567;SDS011;7885;42.596;23.044;2023-04-01T15:43:19;9.20;;;5.63;;
15567;SDS011;7885;42.596;23.044;2023-04-01T15:45:58;5.10;;;1.50;;
15567;SDS011;7885;42.596;23.044;2023-04-01T15:48:46;2.80;;;2.30;;
15567;SDS011;7885;42.596;23.044;2023-04-01T15:51:29;3.13;;;2.37;;
15567;SDS011;7885;42.596;23.044;2023-04-01T15:57:13;3.47;;;2.00;;
15567;SDS011;7885;42.596;23.044;2023-04-01T16:03:15;4.87;;;2.53;;
15567;SDS011;7885;42.596;23.044;2023-04-01T16:05:54;3.40;;;2.30;;
15567;SDS011;7885;42.596;23.044;2023-04-01T16:08:40;2.87;;;1.70;;
15567;SDS011;7885;42.596;23.044;2023-04-01T16:11:28;2.20;;;2.00;;
15567;SDS011;7885;42.596;23.044;2023-04-01T16:14:21;3.77;;;3.37;;
15567;SDS011;7885;42.596;23.044;2023-04-01T16:20:03;1.80;;;1.70;;
15567;SDS011;7885;42.596;23.044;2023-04-01T16:22:46;2.60;;;2.30;;
15567;SDS011;7885;42.596;23.044;2023-04-01T16:25:28;4.63;;;4.07;;
15567;SDS011;7885;42.596;23.044;2023-04-01T16:28:03;4.23;;;3.60;;
15567;SDS011;7885;42.596;23.044;2023-04-01T16:30:42;4.37;;;3.97;;
15567;SDS011;7885;42.596;23.044;2023-04-01T16:33:15;2.37;;;1.80;;
15567;SDS011;7885;42.596;23.044;2023-04-01T16:35:52;3.77;;;3.43;;
15567;SDS011;7885;42.596;23.044;2023-04-01T16:38:26;3.87;;;3.03;;
15567;SDS011;7885;42.596;23.044;2023-04-01T16:41:09;4.07;;;3.27;;
15567;SDS011;7885;42.596;23.044;2023-04-01T16:43:41;3.77;;;3.27;;
15567;SDS011;7885;42.596;23.044;2023-04-01T16:46:15;2.60;;;2.33;;
15567;SDS011;7885;42.596;23.044;2023-04-01T16:48:58;1.60;;;1.50;;
15567;SDS011;7885;42.596;23.044;2023-04-01T16:51:31;2.77;;;2.47;;
15567;SDS011;7885;42.596;23.044;2023-04-01T16:54:05;9.33;;;5.70;;
15567;SDS011;7885;42.596;23.044;2023-04-01T16:56:41;11.10;;;7.73;;
15567;SDS011;7885;42.596;23.044;2023-04-01T16:59:14;9.13;;;7.47;;
15567;SDS011;7885;42.596;23.044;2023-04-01T17:01:48;5.30;;;4.80;;
15567;SDS011;7885;42.596;23.044;2023-04-01T17:04:21;5.80;;;4.40;;
15567;SDS011;7885;42.596;23.044;2023-04-01T17:06:58;5.73;;;5.00;;
15567;SDS011;7885;42.596;23.044;2023-04-01T17:09:38;5.10;;;4.60;;
15567;SDS011;7885;42.596;23.044;2023-04-01T17:12:25;5.13;;;4.63;;
15567;SDS011;7885;42.596;23.044;2023-04-01T17:14:59;4.30;;;3.73;;
15567;SDS011;7885;42.596;23.044;2023-04-01T17:17:38;6.13;;;4.97;;
15567;SDS011;7885;42.596;23.044;2023-04-01T17:20:12;2.20;;;1.97;;
15567;SDS011;7885;42.596;23.044;2023-04-01T17:22:52;3.60;;;3.30;;
15567;SDS011;7885;42.596;23.044;2023-04-01T17:25:36;6.10;;;4.10;;
15567;SDS011;7885;42.596;23.044;2023-04-01T17:28:15;5.47;;;4.23;;
15567;SDS011;7885;42.596;23.044;2023-04-01T17:30:53;5.37;;;4.57;;
15567;SDS011;7885;42.596;23.044;2023-04-01T17:33:37;3.40;;;3.10;;
15567;SDS011;7885;42.596;23.044;2023-04-01T17:36:21;2.70;;;2.50;;
15567;SDS011;7885;42.596;23.044;2023-04-01T17:39:05;7.20;;;6.07;;
15567;SDS011;7885;42.596;23.044;2023-04-01T17:41:48;6.53;;;5.03;;
15567;SDS011;7885;42.596;23.044;2023-04-01T17:44:23;5.63;;;5.07;;
15567;SDS011;7885;42.596;23.044;2023-04-01T17:47:11;4.40;;;4.00;;
15567;SDS011;7885;42.596;23.044;2023-04-01T17:49:51;4.60;;;4.20;;
15567;SDS011;7885;42.596;23.044;2023-04-01T17:52:29;4.63;;;4.23;;
15567;SDS011;7885;42.596;23.044;2023-04-01T17:55:14;6.90;;;5.30;;
15567;SDS011;7885;42.596;23.044;2023-04-01T17:57:57;5.97;;;5.37;;
15567;SDS011;7885;42.596;23.044;2023-04-01T18:00:33;6.77;;;5.30;;
15567;SDS011;7885;42.596;23.044;2023-04-01T18:03:08;9.20;;;7.07;;
15567;SDS011;7885;42.596;23.044;2023-04-01T18:05:51;2.40;;;2.20;;
15567;SDS011;7885;42.596;23.044;2023-04-01T18:08:26;2.60;;;2.40;;
15567;SDS011;7885;42.596;23.044;2023-04-01T18:11:08;1.67;;;1.57;;
15567;SDS011;7885;42.596;23.044;2023-04-01T18:13:51;2.00;;;1.57;;
15567;SDS011;7885;42.596;23.044;2023-04-01T18:17:02;2.40;;;2.20;;
15567;SDS011;7885;42.596;23.044;2023-04-01T18:19:46;1.70;;;1.60;;
15567;SDS011;7885;42.596;23.044;2023-04-01T18:22:23;3.30;;;3.00;;
15567;SDS011;7885;42.596;23.044;2023-04-01T18:24:56;3.23;;;2.90;;